createdAt,value
2023-05-06T00:00:01.175Z,0.00
2023-05-06T00:10:00.394Z,0.00
2023-05-06T00:20:01.021Z,0.00
2023-05-06T00:30:01.045Z,0.00
2023-05-06T00:40:01.148Z,0.00
2023-05-06T00:50:02.656Z,0.00
2023-05-06T01:00:01.057Z,0.00
2023-05-06T01:10:01.409Z,0.00
2023-05-06T01:20:00.535Z,0.00
2023-05-06T01:30:02.734Z,0.00
2023-05-06T01:50:01.257Z,0.00
2023-05-06T02:00:01.640Z,0.00
2023-05-06T02:10:00.979Z,0.00
2023-05-06T02:20:01.252Z,0.00
2023-05-06T02:30:01.049Z,0.00
2023-05-06T02:40:01.079Z,0.00
2023-05-06T02:50:01.056Z,0.00
2023-05-06T03:00:01.323Z,0.34
2023-05-06T03:10:01.121Z,2.26
2023-05-06T03:20:01.068Z,9.96
2023-05-06T03:30:00.396Z,8.33
2023-05-06T03:40:01.816Z,57.08
2023-05-06T03:50:01.552Z,111.25
2023-05-06T04:00:01.866Z,96.67
2023-05-06T04:10:03.539Z,325.00
2023-05-06T04:30:01.113Z,355.00
2023-05-06T04:40:01.175Z,341.67
2023-05-06T04:50:02.072Z,381.67
2023-05-06T05:00:00.516Z,365.00
2023-05-06T05:10:01.002Z,305.00
2023-05-06T05:20:02.496Z,251.67
2023-05-06T05:30:01.483Z,540.42
2023-05-06T05:40:01.131Z,336.67
2023-05-06T05:50:01.183Z,811.25
2023-05-06T06:10:01.505Z,1339.17
2023-05-06T06:20:01.785Z,488.33
2023-05-06T06:30:01.425Z,516.67
2023-05-06T06:40:01.290Z,488.33
2023-05-06T06:50:01.361Z,1335.83
2023-05-06T07:10:01.535Z,1707.50
2023-05-06T07:20:01.619Z,823.33
2023-05-06T07:30:00.400Z,1018.33
2023-05-06T07:40:01.327Z,938.33
2023-05-06T07:50:01.493Z,713.33
2023-05-06T08:10:01.138Z,2143.33
2023-05-06T08:20:01.474Z,651.67
2023-05-06T08:30:01.211Z,1393.75
2023-05-06T08:50:01.042Z,743.33
2023-05-06T09:00:01.987Z,818.33
2023-05-06T09:10:01.510Z,1111.67
2023-05-06T09:20:02.065Z,1851.25
2023-05-06T09:30:01.132Z,1195.00
2023-05-06T09:40:01.178Z,1770.42
2023-05-06T09:50:03.119Z,3100.83
2023-05-06T10:00:02.379Z,2849.58
2023-05-06T10:10:01.073Z,1295.00
2023-05-06T10:20:02.293Z,2186.67
2023-05-06T10:30:01.042Z,1323.33
2023-05-06T10:50:01.103Z,1080.00
2023-05-06T11:00:02.278Z,2247.92
2023-05-06T11:10:03.343Z,1021.67
2023-05-06T11:30:01.056Z,1263.33
2023-05-06T11:50:04.649Z,2891.67
2023-05-06T12:00:01.320Z,1478.33
2023-05-06T12:10:01.054Z,3178.75
2023-05-06T12:20:01.205Z,1296.67
2023-05-06T12:30:01.764Z,1325.00
2023-05-06T12:40:01.495Z,2560.00
2023-05-06T12:50:01.237Z,1326.67
2023-05-06T13:10:01.055Z,1436.67
2023-05-06T13:20:03.888Z,1565.00
2023-05-06T13:30:00.414Z,1541.67
2023-05-06T13:40:01.778Z,2890.83
2023-05-06T13:50:02.838Z,1960.00
2023-05-06T14:00:01.193Z,2336.67
2023-05-06T14:10:01.341Z,5832.92
2023-05-06T14:20:02.072Z,2865.42
2023-05-06T14:30:01.235Z,1110.00
2023-05-06T14:40:01.319Z,1223.33
2023-05-06T14:50:01.337Z,1423.33
2023-05-06T15:00:01.663Z,816.67
2023-05-06T15:10:01.077Z,1655.42
2023-05-06T15:20:01.090Z,1929.58
2023-05-06T15:30:00.451Z,2294.58
2023-05-06T15:40:01.147Z,1241.67
2023-05-06T15:50:01.478Z,1426.67
2023-05-06T16:00:01.331Z,1708.75
2023-05-06T16:10:01.283Z,1780.00
2023-05-06T16:20:00.513Z,550.00
2023-05-06T16:30:01.021Z,1173.33
2023-05-06T16:40:02.142Z,714.17
2023-05-06T16:50:01.964Z,338.33
2023-05-06T17:00:01.594Z,195.00
2023-05-06T17:10:01.453Z,153.33
2023-05-06T17:20:01.900Z,96.67
2023-05-06T17:30:01.180Z,95.00
2023-05-06T17:40:01.025Z,213.33
2023-05-06T17:50:01.534Z,100.00
2023-05-06T18:10:01.039Z,224.58
2023-05-06T18:20:01.127Z,60.00
2023-05-06T18:30:02.957Z,65.83
2023-05-06T18:40:01.147Z,10.00
2023-05-06T18:50:01.056Z,9.85
2023-05-06T19:00:01.220Z,2.60
2023-05-06T19:10:01.280Z,0.57
2023-05-06T19:20:02.517Z,0.00
2023-05-06T19:30:01.011Z,0.00
2023-05-06T19:40:01.218Z,0.00
2023-05-06T19:50:01.430Z,0.00
2023-05-06T20:00:01.372Z,0.00
2023-05-06T20:10:01.932Z,0.00
2023-05-06T20:20:03.483Z,0.00
2023-05-06T20:30:01.566Z,0.00
2023-05-06T20:40:01.040Z,0.00
2023-05-06T20:50:01.211Z,0.00
2023-05-06T21:00:01.363Z,0.00
2023-05-06T21:10:01.877Z,0.00
2023-05-06T21:20:01.448Z,0.00
2023-05-06T21:30:01.238Z,0.00
2023-05-06T21:50:01.811Z,0.00
2023-05-06T22:10:01.058Z,0.00
2023-05-06T22:20:01.409Z,0.00
2023-05-06T22:30:01.085Z,0.00
2023-05-06T22:50:01.240Z,0.00
2023-05-06T23:10:00.964Z,0.00
2023-05-06T23:20:01.158Z,0.00
2023-05-06T23:30:01.544Z,0.23
2023-05-06T23:40:01.564Z,0.00
2023-05-06T23:50:01.372Z,0.00
